Time;durP1;ratioP1;P1;durP2;ratioP2;P2;SDS_P1;SDS_P2;PMS_P1;PMS_P2;Temp;Humidity;BMP_temperature;BMP_pressure;BME280_temperature;BME280_humidity;BME280_pressure;Samples;Min_cycle;Max_cycle;Signal;HPM_P1;HPM_P2
2023/12/05 11:03:36;;;;;;;28.00;11.80;;;;;;;0.11;73.63;98932.00;102355;1290;635767;-73
2023/12/05 11:06:08;;;;;;;25.50;12.20;;;;;;;0.10;73.88;98932.89;104749;1269;94367;-75
2023/12/05 11:08:37;;;;;;;25.70;11.80;;;;;;;0.12;73.80;98929.52;104927;1269;94391;-74
2023/12/05 11:11:06;;;;;;;28.20;13.10;;;;;;;0.13;73.84;98931.77;104600;1270;107177;-75
2023/12/05 11:13:35;;;;;;;27.00;12.10;;;;;;;0.12;74.10;98927.94;104832;1277;94417;-75
2023/12/05 11:16:09;;;;;;;25.70;11.80;;;;;;;0.11;73.72;98922.92;104658;1270;168480;-74
2023/12/05 11:18:43;;;;;;;27.50;12.20;;;;;;;0.10;73.86;98924.18;104971;1263;94327;-74
2023/12/05 11:21:46;;;;;;;23.20;11.50;;;;;;;0.10;74.00;98927.30;105078;1267;94830;-73
2023/12/05 11:24:39;;;;;;;28.40;12.40;;;;;;;0.11;73.76;98924.48;104986;1266;107208;-74
2023/12/05 11:27:22;;;;;;;27.60;12.10;;;;;;;0.11;73.50;98921.16;104868;1267;95187;-74
2023/12/05 11:30:04;;;;;;;28.00;13.40;;;;;;;0.12;74.13;98917.52;104765;1265;107650;-73
2023/12/05 11:32:57;;;;;;;27.10;12.50;;;;;;;0.11;73.54;98919.95;104756;1266;95338;-73
2023/12/05 11:35:40;;;;;;;28.50;13.00;;;;;;;0.11;74.04;98918.56;105242;1260;95237;-74
2023/12/05 11:38:14;;;;;;;28.10;12.40;;;;;;;0.12;73.84;98912.95;105187;1260;108924;-73
2023/12/05 11:40:42;;;;;;;26.90;13.20;;;;;;;0.12;73.76;98907.20;105213;1264;96274;-74
2023/12/05 11:43:13;;;;;;;26.10;12.10;;;;;;;0.12;73.76;98905.80;105125;1268;107590;-73
2023/12/05 11:45:42;;;;;;;28.80;13.00;;;;;;;0.13;73.65;98905.40;105303;1269;95297;-74
2023/12/05 11:48:13;;;;;;;28.80;13.10;;;;;;;0.15;73.87;98904.84;105364;1259;95264;-73
2023/12/05 11:50:43;;;;;;;27.20;12.50;;;;;;;0.16;73.82;98898.02;105332;1264;109306;-74
2023/12/05 11:53:13;;;;;;;27.10;12.80;;;;;;;0.17;73.57;98897.11;105258;1269;95555;-74
2023/12/05 11:55:47;;;;;;;28.20;12.80;;;;;;;0.18;73.66;98896.21;105210;1263;108772;-72
2023/12/05 11:58:32;;;;;;;27.30;12.20;;;;;;;0.18;73.48;98897.79;105390;1259;96180;-74
2023/12/05 12:01:03;;;;;;;25.40;10.90;;;;;;;0.17;72.91;98900.95;105328;1260;95252;-75
2023/12/05 12:03:52;;;;;;;26.70;11.70;;;;;;;0.14;72.98;98898.75;105209;1268;108507;-72
2023/12/05 12:06:23;;;;;;;26.50;12.30;;;;;;;0.13;73.71;98901.23;105378;1263;95405;-74
2023/12/05 12:08:58;;;;;;;24.40;11.30;;;;;;;0.14;73.44;98897.04;105249;1261;106038;-75
2023/12/05 12:11:26;;;;;;;24.10;10.80;;;;;;;0.12;73.15;98896.55;105184;1261;95268;-73
2023/12/05 12:13:54;;;;;;;24.60;10.40;;;;;;;0.12;73.29;98895.17;105074;1260;95276;-74
2023/12/05 12:16:23;;;;;;;25.40;12.00;;;;;;;0.12;73.20;98893.41;105285;1259;108227;-74
2023/12/05 12:18:52;;;;;;;26.80;11.20;;;;;;;0.12;73.31;98893.94;105212;1260;95660;-72
2023/12/05 12:21:29;;;;;;;23.80;10.60;;;;;;;0.12;73.21;98894.30;105418;1258;108209;-73
2023/12/05 12:23:57;;;;;;;26.00;10.60;;;;;;;0.09;73.00;98894.73;105552;1260;95363;-74
2023/12/05 12:26:27;;;;;;;26.00;11.60;;;;;;;0.07;72.90;98896.91;105542;1260;96085;-73
2023/12/05 12:29:07;;;;;;;26.20;12.10;;;;;;;0.02;72.79;98892.70;105554;1260;107935;-74
2023/12/05 12:31:35;;;;;;;27.40;13.20;;;;;;;-0.02;73.13;98893.67;105217;1259;95297;-72
2023/12/05 12:34:07;;;;;;;26.60;11.70;;;;;;;-0.03;73.05;98898.10;105222;1266;107866;-74
2023/12/05 12:36:37;;;;;;;27.00;12.20;;;;;;;-0.04;72.32;98894.98;105349;1260;95367;-74
2023/12/05 12:39:05;;;;;;;27.00;11.90;;;;;;;-0.05;72.96;98893.09;105436;1267;96177;-73
2023/12/05 12:41:33;;;;;;;26.40;12.10;;;;;;;-0.05;72.99;98889.07;105427;1259;108177;-74
2023/12/05 12:44:05;;;;;;;27.00;12.20;;;;;;;-0.04;73.26;98889.25;105273;1260;96184;-74
2023/12/05 12:46:33;;;;;;;28.50;13.00;;;;;;;-0.06;73.18;98890.33;105398;1260;107086;-74
2023/12/05 12:49:02;;;;;;;27.10;11.90;;;;;;;-0.06;73.01;98889.32;105520;1254;95248;-73
2023/12/05 12:51:33;;;;;;;28.70;13.20;;;;;;;-0.09;73.08;98887.84;105556;1260;95261;-74
2023/12/05 12:54:02;;;;;;;25.70;11.40;;;;;;;-0.10;73.18;98889.42;105409;1260;108186;-73
2023/12/05 12:56:31;;;;;;;27.10;12.00;;;;;;;-0.09;73.16;98889.39;105403;1257;96164;-73
2023/12/05 12:59:02;;;;;;;26.60;11.10;;;;;;;-0.08;73.16;98889.35;105590;1268;107199;-73
2023/12/05 13:01:32;;;;;;;26.50;12.10;;;;;;;-0.08;73.02;98884.33;105729;1260;95184;-73
2023/12/05 13:04:01;;;;;;;27.20;11.80;;;;;;;-0.09;72.83;98887.13;105229;1260;95329;-73
2023/12/05 13:06:37;;;;;;;24.10;11.20;;;;;;;-0.10;72.98;98882.99;105382;1260;107188;-74
2023/12/05 13:09:18;;;;;;;27.20;11.90;;;;;;;-0.11;72.75;98886.14;105373;1254;96232;-73
2023/12/05 13:11:47;;;;;;;24.60;11.60;;;;;;;-0.13;72.96;98881.31;105189;1263;106598;-73
2023/12/05 13:14:17;;;;;;;26.20;12.30;;;;;;;-0.13;72.88;98878.89;105044;1259;95374;-72
2023/12/05 13:16:46;;;;;;;26.10;11.10;;;;;;;-0.16;73.02;98877.59;105245;1259;95178;-72
2023/12/05 13:19:35;;;;;;;27.20;13.00;;;;;;;-0.17;73.07;98880.90;105362;1260;108185;-73
2023/12/05 13:22:04;;;;;;;26.50;11.80;;;;;;;-0.18;72.97;98884.59;105282;1268;95685;-73
2023/12/05 13:24:32;;;;;;;26.10;11.90;;;;;;;-0.20;72.78;98881.71;105303;1254;108376;-72
2023/12/05 13:27:00;;;;;;;26.70;12.10;;;;;;;-0.23;73.08;98877.45;105327;1259;96076;-72
2023/12/05 13:29:27;;;;;;;25.70;11.90;;;;;;;-0.25;73.16;98877.15;105323;1260;95154;-72
2023/12/05 13:31:55;;;;;;;29.90;13.10;;;;;;;-0.26;73.07;98881.59;105053;1260;108124;-72
2023/12/05 13:34:23;;;;;;;26.90;11.80;;;;;;;-0.27;72.95;98884.23;105332;1258;95252;-73
2023/12/05 13:36:52;;;;;;;28.80;11.90;;;;;;;-0.30;73.02;98886.39;105031;1267;109116;-73
2023/12/05 13:39:20;;;;;;;28.40;13.10;;;;;;;-0.34;72.89;98885.27;105289;1261;95294;-73
2023/12/05 13:41:48;;;;;;;25.70;11.50;;;;;;;-0.37;72.97;98882.60;105373;1258;96192;-73
2023/12/05 13:44:16;;;;;;;27.50;13.00;;;;;;;-0.40;72.61;98883.73;105099;1268;108624;-73
2023/12/05 13:46:44;;;;;;;24.90;11.90;;;;;;;-0.42;72.71;98885.52;105208;1255;95566;-73
2023/12/05 13:49:12;;;;;;;24.70;11.00;;;;;;;-0.46;72.49;98891.05;105323;1267;107608;-73
2023/12/05 13:51:40;;;;;;;30.20;12.30;;;;;;;-0.48;72.53;98892.34;105049;1260;95333;-73
2023/12/05 13:54:08;;;;;;;27.30;12.20;;;;;;;-0.49;72.79;98894.81;105218;1260;95268;-73
2023/12/05 13:56:36;;;;;;;25.80;11.90;;;;;;;-0.50;73.05;98895.36;105081;1259;108136;-73
2023/12/05 13:59:04;;;;;;;28.60;12.70;;;;;;;-0.54;72.87;98900.19;105427;1258;95462;-73
2023/12/05 14:01:32;;;;;;;30.30;16.00;;;;;;;-0.56;72.85;98904.42;105171;1270;107576;-72
2023/12/05 14:04:00;;;;;;;30.90;14.90;;;;;;;-0.56;73.10;98906.86;105261;1261;95249;-72
2023/12/05 14:06:28;;;;;;;33.50;15.50;;;;;;;-0.59;72.76;98910.42;105193;1261;95255;-72
2023/12/05 14:08:56;;;;;;;36.60;16.60;;;;;;;-0.62;73.06;98911.20;105341;1257;108032;-72
2023/12/05 14:11:25;;;;;;;34.00;15.50;;;;;;;-0.64;72.82;98912.67;105176;1268;95548;-72
2023/12/05 14:13:52;;;;;;;36.70;15.80;;;;;;;-0.66;72.78;98918.48;105235;1268;107225;-72
2023/12/05 14:16:20;;;;;;;34.60;16.00;;;;;;;-0.67;72.67;98921.30;105342;1261;95186;-73
2023/12/05 14:18:48;;;;;;;31.60;15.20;;;;;;;-0.67;72.81;98923.20;105371;1260;95164;-73
2023/12/05 14:21:16;;;;;;;35.30;16.30;;;;;;;-0.68;72.76;98929.15;105283;1254;108510;-72
2023/12/05 14:23:44;;;;;;;34.00;15.90;;;;;;;-0.68;73.08;98932.81;105139;1261;95749;-72
2023/12/05 14:26:11;;;;;;;35.30;16.40;;;;;;;-0.66;73.12;98942.16;105300;1267;107587;-72
2023/12/05 14:28:39;;;;;;;35.40;16.00;;;;;;;-0.65;73.09;98941.96;105402;1257;95808;-73
2023/12/05 14:31:07;;;;;;;60.40;32.00;;;;;;;-0.65;72.65;98940.39;105367;1254;95178;-72
2023/12/05 14:33:35;;;;;;;52.50;28.90;;;;;;;-0.70;72.71;98945.08;105248;1257;109306;-72
2023/12/05 14:36:04;;;;;;;97.30;53.30;;;;;;;-0.81;72.44;98952.48;105388;1261;95478;-71
2023/12/05 14:38:32;;;;;;;118.20;62.70;;;;;;;-0.94;72.37;98950.08;105334;1257;107614;-73
2023/12/05 14:41:00;;;;;;;116.60;63.50;;;;;;;-1.05;72.49;98952.82;105166;1255;95214;-73
2023/12/05 14:43:28;;;;;;;110.60;61.50;;;;;;;-1.15;72.66;98952.04;105694;1258;95264;-72
2023/12/05 14:45:56;;;;;;;118.50;63.70;;;;;;;-1.23;72.73;98952.59;105302;1256;108584;-72
2023/12/05 14:48:24;;;;;;;128.60;74.30;;;;;;;-1.31;72.64;98953.84;105155;1266;97317;-67
2023/12/05 14:50:52;;;;;;;127.00;72.00;;;;;;;-1.41;72.67;98954.80;105142;1267;107753;-67
2023/12/05 14:53:20;;;;;;;122.80;69.40;;;;;;;-1.51;72.79;98963.56;105390;1267;95650;-67
2023/12/05 14:55:48;;;;;;;123.40;67.60;;;;;;;-1.57;72.68;98962.67;105375;1258;96178;-67
2023/12/05 14:58:15;;;;;;;129.40;69.70;;;;;;;-1.63;72.54;98962.80;105148;1268;108436;-66
2023/12/05 15:00:43;;;;;;;118.40;62.30;;;;;;;-1.72;72.28;98964.25;104664;1254;95298;-67
2023/12/05 15:03:11;;;;;;;121.00;68.10;;;;;;;-1.83;72.37;98967.46;104889;1266;108199;-67
2023/12/05 15:05:39;;;;;;;134.10;69.50;;;;;;;-1.95;72.42;98968.42;105352;1257;96880;-67
2023/12/05 15:08:07;;;;;;;122.30;66.80;;;;;;;-2.06;72.29;98966.95;105209;1260;95336;-67
2023/12/05 15:10:37;;;;;;;121.70;66.40;;;;;;;-2.18;72.22;98963.73;104896;1254;109077;-67
2023/12/05 15:13:05;;;;;;;119.30;65.20;;;;;;;-2.29;72.33;98963.64;105592;1268;95389;-67
2023/12/05 15:15:33;;;;;;;120.60;64.60;;;;;;;-2.39;72.13;98966.13;105518;1257;108335;-67
2023/12/05 15:18:00;;;;;;;116.00;63.10;;;;;;;-2.51;72.23;98963.60;105555;1257;96651;-67
2023/12/05 15:20:28;;;;;;;111.20;60.30;;;;;;;-2.65;72.00;98967.70;105690;1257;96695;-71
2023/12/05 15:22:57;;;;;;;116.40;65.80;;;;;;;-2.82;72.08;98970.29;105465;1254;109999;-67
2023/12/05 15:25:25;;;;;;;120.20;66.70;;;;;;;-2.89;72.29;98966.27;105365;1256;97811;-68
2023/12/05 15:27:52;;;;;;;119.50;63.40;;;;;;;-2.94;72.19;98968.61;105046;1266;107516;-68
2023/12/05 15:30:20;;;;;;;119.30;62.80;;;;;;;-3.01;72.20;98972.72;105313;1257;96589;-68
2023/12/05 15:32:53;;;;;;;125.90;68.00;;;;;;;-3.06;72.44;98970.05;105391;1258;96535;-68
2023/12/05 15:35:21;;;;;;;130.00;64.00;;;;;;;-3.11;72.15;98965.98;105307;1255;108913;-68
2023/12/05 15:37:50;;;;;;;124.20;65.80;;;;;;;-3.17;72.14;98971.48;105508;1254;96596;-67
2023/12/05 15:40:18;;;;;;;132.20;69.80;;;;;;;-3.22;72.36;98970.17;105565;1270;108243;-69
2023/12/05 15:42:48;;;;;;;128.90;67.10;;;;;;;-3.28;72.23;98968.91;105324;1257;97631;-66
2023/12/05 15:45:17;;;;;;;126.00;66.80;;;;;;;-3.34;72.27;98974.38;104969;1254;96611;-66
2023/12/05 15:47:45;;;;;;;129.40;68.40;;;;;;;-3.37;72.25;98975.81;105036;1256;109851;-67
2023/12/05 15:50:16;;;;;;;130.10;69.00;;;;;;;-3.38;72.28;98971.33;104904;1257;96634;-67
2023/12/05 15:52:45;;;;;;;123.90;68.30;;;;;;;-3.42;72.17;98968.77;105616;1254;107620;-67
2023/12/05 15:55:14;;;;;;;122.10;65.10;;;;;;;-3.47;72.12;98967.49;105530;1255;97211;-66
2023/12/05 15:57:42;;;;;;;132.10;71.50;;;;;;;-3.51;72.07;98969.48;105616;1251;97726;-67
2023/12/05 16:00:12;;;;;;;132.30;70.00;;;;;;;-3.54;72.09;98966.56;105692;1251;110023;-67
2023/12/05 16:02:41;;;;;;;136.10;71.60;;;;;;;-3.56;72.21;98965.55;105833;1251;97817;-67
2023/12/05 16:05:10;;;;;;;131.20;68.60;;;;;;;-3.58;72.14;98963.69;105679;1266;106415;-67
2023/12/05 16:07:39;;;;;;;129.90;68.20;;;;;;;-3.61;72.32;98969.96;105699;1254;96695;-68
2023/12/05 16:10:07;;;;;;;135.90;72.20;;;;;;;-3.61;72.31;98967.55;105640;1254;96581;-67
2023/12/05 16:12:35;;;;;;;129.70;69.40;;;;;;;-3.64;72.33;98966.90;105598;1251;110533;-67
2023/12/05 16:15:03;;;;;;;127.70;68.70;;;;;;;-3.68;72.07;98967.16;105557;1251;96815;-67
2023/12/05 16:17:31;;;;;;;137.00;69.00;;;;;;;-3.72;72.03;98969.13;105566;1251;107223;-67
2023/12/05 16:19:59;;;;;;;127.20;69.20;;;;;;;-3.76;72.17;98967.96;105640;1254;97981;-68
2023/12/05 16:22:27;;;;;;;130.50;68.80;;;;;;;-3.80;72.25;98966.13;105567;1254;96689;-67
2023/12/05 16:24:55;;;;;;;136.20;69.30;;;;;;;-3.81;72.12;98969.25;105446;1255;109883;-67
2023/12/05 16:27:23;;;;;;;125.00;68.20;;;;;;;-3.84;72.09;98967.91;105546;1257;96974;-66
2023/12/05 16:29:51;;;;;;;124.40;65.60;;;;;;;-3.84;72.40;98969.83;105630;1254;108516;-66
2023/12/05 16:32:19;;;;;;;129.40;68.00;;;;;;;-3.83;72.18;98970.67;105704;1251;97954;-67
2023/12/05 16:34:47;;;;;;;125.60;65.00;;;;;;;-3.86;72.09;98970.38;105879;1254;97095;-68
2023/12/05 16:37:14;;;;;;;121.40;64.70;;;;;;;-3.91;72.07;98969.94;105929;1252;109938;-68
2023/12/05 16:39:43;;;;;;;121.60;65.00;;;;;;;-3.97;72.12;98972.63;105532;1257;96602;-68
2023/12/05 16:42:11;;;;;;;128.20;65.10;;;;;;;-4.04;72.23;98974.10;105646;1257;107268;-68
2023/12/05 16:44:45;;;;;;;130.40;64.80;;;;;;;-4.11;72.15;98970.59;105284;1257;97790;-67
2023/12/05 16:47:13;;;;;;;124.60;67.50;;;;;;;-4.16;72.18;98967.18;105585;1251;96622;-67
2023/12/05 16:49:42;;;;;;;121.00;65.30;;;;;;;-4.22;72.18;98967.96;105410;1257;109840;-66
2023/12/05 16:52:10;;;;;;;121.60;61.10;;;;;;;-4.28;72.10;98968.05;105728;1251;96669;-68
2023/12/05 16:54:38;;;;;;;121.10;65.10;;;;;;;-4.33;71.90;98969.68;105538;1267;107587;-66
2023/12/05 16:57:06;;;;;;;122.20;63.90;;;;;;;-4.38;72.06;98970.78;105319;1258;96620;-67
2023/12/05 16:59:34;;;;;;;114.50;62.30;;;;;;;-4.44;72.04;98969.29;105481;1251;96605;-66
2023/12/05 17:02:02;;;;;;;115.40;63.50;;;;;;;-4.45;71.99;98972.77;105798;1251;110414;-67
2023/12/05 17:04:30;;;;;;;120.80;63.40;;;;;;;-4.46;72.21;98971.57;105518;1251;96498;-67
2023/12/05 17:06:59;;;;;;;109.10;57.20;;;;;;;-4.49;71.97;98969.19;105605;1254;107615;-67
2023/12/05 17:09:28;;;;;;;118.30;60.50;;;;;;;-4.57;71.77;98970.85;105692;1251;97457;-68
2023/12/05 17:11:55;;;;;;;122.10;62.60;;;;;;;-4.60;72.07;98970.73;105581;1255;96613;-70
2023/12/05 17:14:23;;;;;;;109.70;58.40;;;;;;;-4.62;72.02;98973.33;105284;1267;109876;-69
2023/12/05 17:16:51;;;;;;;104.60;56.70;;;;;;;-4.67;71.83;98975.99;105485;1254;97899;-70
2023/12/05 17:19:19;;;;;;;111.30;57.20;;;;;;;-4.71;71.93;98979.69;105341;1254;107670;-71
2023/12/05 17:21:47;;;;;;;115.30;59.60;;;;;;;-4.80;71.73;98976.84;105749;1264;96664;-68
2023/12/05 17:24:15;;;;;;;108.20;57.70;;;;;;;-4.86;71.79;98981.41;105526;1254;96720;-69
2023/12/05 17:26:43;;;;;;;124.10;64.40;;;;;;;-4.89;71.95;98981.27;105500;1257;108208;-68
2023/12/05 17:29:11;;;;;;;115.70;62.80;;;;;;;-4.94;71.85;98983.58;105520;1254;96539;-68
2023/12/05 17:31:38;;;;;;;115.60;56.40;;;;;;;-4.96;71.92;98983.95;105347;1257;107568;-67
2023/12/05 17:34:06;;;;;;;115.80;61.20;;;;;;;-4.96;72.06;98983.27;105643;1255;96667;-69
2023/12/05 17:36:34;;;;;;;106.60;58.00;;;;;;;-4.96;72.15;98985.33;105603;1254;96626;-70
2023/12/05 17:39:02;;;;;;;118.00;59.70;;;;;;;-4.98;71.96;98984.14;105421;1254;108968;-70
2023/12/05 17:41:30;;;;;;;116.70;57.90;;;;;;;-5.01;72.05;98986.08;105463;1251;96536;-71
2023/12/05 17:43:57;;;;;;;125.00;63.00;;;;;;;-5.05;71.99;98985.08;105454;1251;107657;-68
2023/12/05 17:46:25;;;;;;;118.50;61.10;;;;;;;-5.12;71.76;98980.66;105742;1252;96600;-68
2023/12/05 17:48:53;;;;;;;115.60;58.90;;;;;;;-5.17;72.01;98982.96;105470;1257;96541;-71
2023/12/05 17:51:21;;;;;;;121.00;61.00;;;;;;;-5.21;71.97;98983.52;105797;1254;110100;-69
2023/12/05 17:53:49;;;;;;;114.10;59.70;;;;;;;-5.23;72.05;98979.90;105725;1254;96622;-65
2023/12/05 17:56:17;;;;;;;122.80;64.80;;;;;;;-5.25;71.91;98985.10;105633;1251;106293;-67
2023/12/05 17:58:46;;;;;;;128.60;62.70;;;;;;;-5.27;71.82;98986.68;105331;1256;96630;-70
2023/12/05 18:01:14;;;;;;;138.30;68.60;;;;;;;-5.30;72.13;98988.78;105674;1251;96519;-68
2023/12/05 18:03:42;;;;;;;127.90;66.30;;;;;;;-5.34;71.94;98983.98;105588;1254;109885;-68
2023/12/05 18:06:10;;;;;;;126.40;63.20;;;;;;;-5.40;71.88;98984.04;105631;1254;97919;-69
2023/12/05 18:08:40;;;;;;;122.90;64.60;;;;;;;-5.44;71.82;98984.77;105676;1267;107554;-69
2023/12/05 18:11:09;;;;;;;119.60;61.70;;;;;;;-5.50;71.79;98979.63;105534;1257;96597;-68
2023/12/05 18:13:36;;;;;;;118.90;61.10;;;;;;;-5.52;72.12;98981.38;105625;1257;96612;-69
2023/12/05 18:16:05;;;;;;;128.80;65.30;;;;;;;-5.56;71.91;98977.27;105742;1250;109975;-69
2023/12/05 18:18:33;;;;;;;120.40;62.70;;;;;;;-5.58;72.08;98976.25;105588;1256;96673;-68
2023/12/05 18:21:02;;;;;;;120.10;61.50;;;;;;;-5.55;72.37;98980.38;105508;1251;108010;-69
2023/12/05 18:23:31;;;;;;;120.70;65.80;;;;;;;-5.57;72.10;98987.48;105702;1254;96577;-69
2023/12/05 18:25:59;;;;;;;132.70;67.00;;;;;;;-5.60;72.03;98989.05;105601;1251;96605;-68
2023/12/05 18:28:27;;;;;;;123.40;63.30;;;;;;;-5.59;71.99;98984.55;105318;1251;109145;-68
2023/12/05 18:30:55;;;;;;;124.40;63.10;;;;;;;-5.64;71.87;98986.14;105740;1251;96677;-69
2023/12/05 18:33:23;;;;;;;132.20;68.40;;;;;;;-5.68;71.90;98985.31;105573;1251;107595;-67
2023/12/05 18:35:51;;;;;;;127.70;67.70;;;;;;;-5.67;71.86;98989.27;105375;1254;97010;-68
2023/12/05 18:38:19;;;;;;;120.50;63.30;;;;;;;-5.65;72.00;98986.84;105543;1254;96592;-69
2023/12/05 18:40:47;;;;;;;129.20;67.30;;;;;;;-5.64;72.12;98985.45;105524;1254;110000;-69
2023/12/05 18:43:15;;;;;;;129.80;65.20;;;;;;;-5.65;71.99;98989.95;105568;1256;97181;-68
2023/12/05 18:45:43;;;;;;;129.20;67.10;;;;;;;-5.67;72.19;98992.73;105671;1257;107709;-68
2023/12/05 18:48:11;;;;;;;129.20;65.90;;;;;;;-5.68;72.05;98991.70;105458;1255;97537;-67
2023/12/05 18:50:39;;;;;;;136.30;69.30;;;;;;;-5.68;72.15;98997.74;105843;1251;97820;-67
2023/12/05 18:53:06;;;;;;;136.60;69.40;;;;;;;-5.69;72.18;98999.13;105309;1267;109079;-68
2023/12/05 18:55:34;;;;;;;130.40;67.60;;;;;;;-5.68;72.43;98996.19;105541;1254;96588;-67
2023/12/05 18:58:03;;;;;;;151.40;72.30;;;;;;;-5.68;72.14;98996.36;105522;1254;107096;-67
2023/12/05 19:00:32;;;;;;;144.10;71.00;;;;;;;-5.71;72.08;99001.24;105603;1254;96590;-69
2023/12/05 19:03:03;;;;;;;140.10;71.80;;;;;;;-5.73;72.17;99001.59;105626;1254;96762;-69
2023/12/05 19:05:31;;;;;;;142.30;73.10;;;;;;;-5.77;72.34;98996.09;105583;1253;108013;-68
2023/12/05 19:08:01;;;;;;;144.40;75.20;;;;;;;-5.79;71.99;99002.16;105563;1254;97070;-68
2023/12/05 19:10:29;;;;;;;139.60;72.00;;;;;;;-5.87;71.78;98999.61;105437;1258;107692;-69
2023/12/05 19:12:57;;;;;;;137.10;71.30;;;;;;;-5.94;71.92;99001.23;105725;1254;97961;-69
2023/12/05 19:15:25;;;;;;;138.20;69.60;;;;;;;-5.99;71.88;99004.54;105492;1254;97518;-69
2023/12/05 19:17:53;;;;;;;142.50;72.70;;;;;;;-6.01;72.11;99013.89;105538;1251;107842;-68
2023/12/05 19:20:21;;;;;;;153.80;79.10;;;;;;;-6.02;72.02;99012.37;105647;1265;96623;-69
2023/12/05 19:22:49;;;;;;;143.70;76.60;;;;;;;-6.04;72.19;99012.54;105159;1269;105783;-70
2023/12/05 19:25:18;;;;;;;144.80;69.40;;;;;;;-6.06;72.05;99007.73;105399;1255;97090;-69
2023/12/05 19:27:46;;;;;;;140.40;73.00;;;;;;;-6.04;72.21;99005.30;108760;1251;94585;-70
2023/12/05 19:30:14;;;;;;;154.40;76.80;;;;;;;-6.05;72.21;99007.19;106193;1251;109467;-69
2023/12/05 19:32:42;;;;;;;150.10;76.30;;;;;;;-6.07;72.08;99003.24;105691;1256;97649;-67
2023/12/05 19:35:10;;;;;;;146.10;76.60;;;;;;;-6.12;72.13;99005.17;105622;1254;107209;-69
2023/12/05 19:37:38;;;;;;;140.90;74.90;;;;;;;-6.13;72.07;99004.50;105665;1254;96599;-69
2023/12/05 19:40:07;;;;;;;167.10;83.90;;;;;;;-6.15;71.87;99002.42;105666;1254;97415;-69
2023/12/05 19:42:36;;;;;;;161.90;84.10;;;;;;;-6.18;71.89;99004.17;105446;1253;110543;-69
2023/12/05 19:45:05;;;;;;;164.20;81.60;;;;;;;-6.17;71.86;99005.04;105697;1253;96593;-69
2023/12/05 19:47:32;;;;;;;158.90;81.20;;;;;;;-6.22;71.83;99002.13;105354;1251;107571;-69
2023/12/05 19:50:00;;;;;;;159.70;78.90;;;;;;;-6.26;71.94;99005.08;105498;1256;96680;-68
2023/12/05 19:52:28;;;;;;;158.30;79.60;;;;;;;-6.28;72.16;99001.63;105649;1254;96616;-69
2023/12/05 19:54:56;;;;;;;154.80;80.40;;;;;;;-6.24;72.09;98994.38;105594;1257;110218;-68
2023/12/05 19:57:24;;;;;;;160.40;84.90;;;;;;;-6.24;72.08;98992.82;105385;1251;96684;-68
2023/12/05 19:59:52;;;;;;;151.80;74.80;;;;;;;-6.31;71.45;98996.64;105646;1254;107233;-68
2023/12/05 20:02:19;;;;;;;157.70;79.30;;;;;;;-6.39;71.70;98997.55;105717;1254;96596;-68
2023/12/05 20:04:47;;;;;;;143.20;75.20;;;;;;;-6.41;71.81;98994.80;105425;1251;98126;-69
2023/12/05 20:07:15;;;;;;;154.10;78.90;;;;;;;-6.39;72.01;98996.87;105633;1251;110107;-68
2023/12/05 20:09:43;;;;;;;158.60;80.10;;;;;;;-6.36;72.08;98998.06;105708;1254;98025;-68
2023/12/05 20:12:11;;;;;;;160.20;81.60;;;;;;;-6.37;71.92;98995.13;105454;1266;107392;-68
2023/12/05 20:14:39;;;;;;;169.40;85.90;;;;;;;-6.42;71.94;98992.55;105332;1251;96655;-68
2023/12/05 20:17:07;;;;;;;155.60;80.60;;;;;;;-6.47;71.57;98987.58;105635;1257;96596;-68
2023/12/05 20:19:35;;;;;;;152.80;75.60;;;;;;;-6.50;71.83;98982.77;105688;1250;110547;-69
2023/12/05 20:22:05;;;;;;;149.80;77.60;;;;;;;-6.51;71.84;98979.99;105795;1251;96615;-67
2023/12/05 20:24:33;;;;;;;156.50;82.20;;;;;;;-6.56;71.52;98983.32;105885;1254;107269;-70
2023/12/05 20:27:01;;;;;;;153.80;76.90;;;;;;;-6.60;71.84;98985.93;105517;1255;96698;-68
2023/12/05 20:29:29;;;;;;;163.40;81.90;;;;;;;-6.64;71.64;98986.63;105750;1254;96622;-69
2023/12/05 20:31:56;;;;;;;157.80;78.70;;;;;;;-6.67;71.72;98988.53;105702;1255;110251;-68
2023/12/05 20:34:24;;;;;;;160.10;77.40;;;;;;;-6.71;71.69;98987.36;105404;1254;97641;-68
2023/12/05 20:36:52;;;;;;;162.60;78.20;;;;;;;-6.76;71.67;98987.19;105916;1254;107648;-68
2023/12/05 20:39:20;;;;;;;156.80;82.30;;;;;;;-6.82;71.67;98988.77;105599;1251;97623;-68
2023/12/05 20:41:51;;;;;;;168.80;81.80;;;;;;;-6.88;71.55;98989.48;105997;1251;96625;-67
2023/12/05 20:44:19;;;;;;;175.50;84.80;;;;;;;-6.92;71.69;98994.84;105896;1254;112112;-68
2023/12/05 20:46:47;;;;;;;174.00;87.30;;;;;;;-6.93;71.73;98993.80;105701;1257;96677;-69
2023/12/05 20:49:15;;;;;;;162.00;79.50;;;;;;;-6.92;71.93;98993.96;105854;1252;107605;-69
2023/12/05 20:51:43;;;;;;;175.20;89.40;;;;;;;-6.95;71.94;98997.61;105617;1254;96609;-70
2023/12/05 20:54:11;;;;;;;191.90;92.20;;;;;;;-6.97;71.88;99001.75;105533;1258;96702;-69
2023/12/05 20:56:38;;;;;;;184.40;88.60;;;;;;;-6.96;71.83;99002.61;105701;1253;110510;-68
2023/12/05 20:59:06;;;;;;;205.30;95.30;;;;;;;-6.92;71.94;99007.95;105562;1256;96537;-68
2023/12/05 21:01:34;;;;;;;195.10;96.60;;;;;;;-6.90;72.15;99008.45;105522;1257;109425;-68
2023/12/05 21:04:02;;;;;;;189.40;92.50;;;;;;;-6.87;72.23;99011.89;105670;1254;96689;-69
2023/12/05 21:06:30;;;;;;;194.20;94.20;;;;;;;-6.86;71.97;99006.02;108748;1250;94457;-70
2023/12/05 21:08:58;;;;;;;179.80;90.40;;;;;;;-6.87;72.07;99007.23;105824;1254;109822;-69
2023/12/05 21:11:40;;;;;;;178.10;89.70;;;;;;;-6.91;71.70;99003.98;106038;1255;96594;-69
2023/12/05 21:14:07;;;;;;;195.70;93.10;;;;;;;-6.98;71.73;99003.82;105839;1251;105828;-69
2023/12/05 21:16:39;;;;;;;176.30;87.40;;;;;;;-7.02;71.54;99002.45;106089;1254;96698;-67
2023/12/05 21:19:07;;;;;;;185.50;90.90;;;;;;;-7.05;71.77;99004.86;106131;1251;96603;-69
2023/12/05 21:21:35;;;;;;;192.20;92.70;;;;;;;-7.06;71.62;99005.20;105575;1257;109981;-69
2023/12/05 21:24:03;;;;;;;190.80;93.70;;;;;;;-7.09;71.76;99003.50;105949;1254;97850;-68
2023/12/05 21:26:31;;;;;;;181.90;88.80;;;;;;;-7.10;71.65;99002.13;105884;1254;107799;-68
2023/12/05 21:28:59;;;;;;;179.80;89.30;;;;;;;-7.08;72.04;98998.50;105878;1251;97393;-67
2023/12/05 21:31:27;;;;;;;179.90;88.70;;;;;;;-7.05;71.89;98999.54;105897;1257;96641;-67
2023/12/05 21:33:57;;;;;;;185.80;90.80;;;;;;;-7.11;71.62;98994.55;105746;1257;108918;-71
2023/12/05 21:36:25;;;;;;;179.60;90.30;;;;;;;-7.15;71.89;98997.14;105729;1254;96373;-69
2023/12/05 21:38:54;;;;;;;185.80;91.00;;;;;;;-7.14;71.87;99002.99;105935;1251;107654;-68
2023/12/05 21:41:26;;;;;;;165.60;85.20;;;;;;;-7.18;71.91;99009.04;105746;1267;96604;-68
2023/12/05 21:43:54;;;;;;;182.40;88.70;;;;;;;-7.20;71.82;99014.38;105635;1254;97808;-70
2023/12/05 21:46:24;;;;;;;182.40;88.80;;;;;;;-7.24;71.60;99019.38;105474;1254;110577;-69
2023/12/05 21:48:52;;;;;;;178.40;86.30;;;;;;;-7.31;71.61;99016.80;105789;1267;97531;-68
2023/12/05 21:51:20;;;;;;;176.60;90.10;;;;;;;-7.34;71.60;99023.88;105821;1251;107669;-69
2023/12/05 21:53:48;;;;;;;167.30;82.50;;;;;;;-7.37;71.79;99024.75;105379;1257;96605;-69
2023/12/05 21:56:17;;;;;;;182.70;89.40;;;;;;;-7.35;71.91;99022.50;105754;1251;97176;-68
2023/12/05 21:58:45;;;;;;;176.60;92.40;;;;;;;-7.35;71.68;99019.56;105787;1255;109441;-69
2023/12/05 22:01:15;;;;;;;178.00;87.40;;;;;;;-7.40;71.57;99019.23;105855;1253;96598;-68
2023/12/05 22:03:43;;;;;;;187.50;87.40;;;;;;;-7.47;71.28;99019.05;105563;1251;105502;-69
2023/12/05 22:06:11;;;;;;;189.50;88.10;;;;;;;-7.55;71.43;99022.34;105869;1254;96603;-69
2023/12/05 22:08:39;;;;;;;186.70;89.20;;;;;;;-7.60;71.39;99021.30;105831;1256;96603;-67
2023/12/05 22:11:07;;;;;;;189.80;89.10;;;;;;;-7.66;71.48;99015.80;105824;1257;109879;-69
2023/12/05 22:13:35;;;;;;;178.20;88.50;;;;;;;-7.71;71.37;99017.34;105677;1252;97527;-66